sensor_id;sensor_type;location;lat;lon;timestamp;pressure;altitude;pressure_sealevel;temperature;humidity
71857;BME280;63344;46.980;28.882;2023-08-21T00:00:48;100797.13;;;24.18;58.46
71857;BME280;63344;46.980;28.882;2023-08-21T00:03:48;100788.84;;;24.10;58.17
71857;BME280;63344;46.980;28.882;2023-08-21T00:06:35;100785.84;;;24.03;58.49
71857;BME280;63344;46.980;28.882;2023-08-21T00:09:22;100791.00;;;23.97;59.21
71857;BME280;63344;46.980;28.882;2023-08-21T00:12:22;100786.56;;;23.86;59.43
71857;BME280;63344;46.980;28.882;2023-08-21T00:15:19;100782.72;;;23.79;59.61
71857;BME280;63344;46.980;28.882;2023-08-21T00:18:21;100779.66;;;23.72;59.66
71857;BME280;63344;46.980;28.882;2023-08-21T00:21:11;100793.38;;;23.71;59.81
71857;BME280;63344;46.980;28.882;2023-08-21T00:23:55;100788.53;;;23.64;59.92
71857;BME280;63344;46.980;28.882;2023-08-21T00:26:38;100784.50;;;23.59;60.64
71857;BME280;63344;46.980;28.882;2023-08-21T00:29:07;100786.91;;;23.52;60.73
71857;BME280;63344;46.980;28.882;2023-08-21T00:31:44;100778.75;;;23.42;61.01
71857;BME280;63344;46.980;28.882;2023-08-21T00:34:19;100779.03;;;23.39;60.86
71857;BME280;63344;46.980;28.882;2023-08-21T00:37:03;100779.47;;;23.35;60.99
71857;BME280;63344;46.980;28.882;2023-08-21T00:39:38;100778.44;;;23.26;61.21
71857;BME280;63344;46.980;28.882;2023-08-21T00:42:10;100786.56;;;23.26;61.35
71857;BME280;63344;46.980;28.882;2023-08-21T00:44:42;100785.00;;;23.23;61.91
71857;BME280;63344;46.980;28.882;2023-08-21T00:47:13;100786.97;;;23.21;62.42
71857;BME280;63344;46.980;28.882;2023-08-21T00:49:56;100791.25;;;23.24;61.55
71857;BME280;63344;46.980;28.882;2023-08-21T00:52:59;100796.56;;;23.25;61.67
71857;BME280;63344;46.980;28.882;2023-08-21T00:55:31;100786.84;;;23.23;61.20
71857;BME280;63344;46.980;28.882;2023-08-21T00:58:09;100793.53;;;23.19;61.38
71857;BME280;63344;46.980;28.882;2023-08-21T01:00:51;100793.66;;;23.17;61.63
71857;BME280;63344;46.980;28.882;2023-08-21T01:03:24;100783.38;;;23.11;61.77
71857;BME280;63344;46.980;28.882;2023-08-21T01:06:00;100785.63;;;23.06;62.22
71857;BME280;63344;46.980;28.882;2023-08-21T01:09:54;100773.44;;;22.91;62.46
71857;BME280;63344;46.980;28.882;2023-08-21T01:15:31;100781.66;;;22.79;63.07
71857;BME280;63344;46.980;28.882;2023-08-21T01:18:01;100782.06;;;22.75;62.89
71857;BME280;63344;46.980;28.882;2023-08-21T01:20:48;100788.13;;;22.67;62.93
71857;BME280;63344;46.980;28.882;2023-08-21T01:23:43;100784.22;;;22.60;63.36
71857;BME280;63344;46.980;28.882;2023-08-21T01:26:27;100782.25;;;22.62;63.20
71857;BME280;63344;46.980;28.882;2023-08-21T01:29:10;100782.13;;;22.63;62.88
71857;BME280;63344;46.980;28.882;2023-08-21T01:32:12;100782.66;;;22.57;63.13
71857;BME280;63344;46.980;28.882;2023-08-21T01:35:18;100791.38;;;22.61;62.89
71857;BME280;63344;46.980;28.882;2023-08-21T01:38:10;100788.81;;;22.59;62.58
71857;BME280;63344;46.980;28.882;2023-08-21T01:40:48;100802.94;;;22.63;62.65
71857;BME280;63344;46.980;28.882;2023-08-21T01:43:25;100785.25;;;22.59;62.87
71857;BME280;63344;46.980;28.882;2023-08-21T01:46:11;100789.06;;;22.56;62.42
71857;BME280;63344;46.980;28.882;2023-08-21T01:48:48;100791.75;;;22.56;62.71
71857;BME280;63344;46.980;28.882;2023-08-21T01:51:48;100796.72;;;22.51;62.93
71857;BME280;63344;46.980;28.882;2023-08-21T01:54:25;100800.28;;;22.52;62.79
71857;BME280;63344;46.980;28.882;2023-08-21T01:57:13;100781.16;;;22.43;62.56
71857;BME280;63344;46.980;28.882;2023-08-21T01:59:47;100802.47;;;22.58;62.54
71857;BME280;63344;46.980;28.882;2023-08-21T02:02:33;100790.44;;;22.51;62.62
71857;BME280;63344;46.980;28.882;2023-08-21T02:05:11;100807.44;;;22.53;62.71
71857;BME280;63344;46.980;28.882;2023-08-21T02:07:44;100797.72;;;22.50;62.48
71857;BME280;63344;46.980;28.882;2023-08-21T02:10:52;100803.72;;;22.54;62.58
71857;BME280;63344;46.980;28.882;2023-08-21T02:13:21;100802.16;;;22.51;62.58
71857;BME280;63344;46.980;28.882;2023-08-21T02:16:02;100808.16;;;22.55;62.29
71857;BME280;63344;46.980;28.882;2023-08-21T02:18:45;100805.28;;;22.56;62.11
71857;BME280;63344;46.980;28.882;2023-08-21T02:21:18;100799.75;;;22.58;61.83
71857;BME280;63344;46.980;28.882;2023-08-21T02:23:57;100798.91;;;22.57;62.04
71857;BME280;63344;46.980;28.882;2023-08-21T02:26:28;100805.78;;;22.61;61.93
71857;BME280;63344;46.980;28.882;2023-08-21T02:29:04;100805.22;;;22.67;61.09
71857;BME280;63344;46.980;28.882;2023-08-21T02:31:55;100798.44;;;22.73;60.49
71857;BME280;63344;46.980;28.882;2023-08-21T02:34:26;100807.06;;;22.88;60.12
71857;BME280;63344;46.980;28.882;2023-08-21T02:37:07;100800.66;;;22.89;60.00
71857;BME280;63344;46.980;28.882;2023-08-21T02:39:47;100807.22;;;22.96;59.63
71857;BME280;63344;46.980;28.882;2023-08-21T02:42:24;100814.09;;;23.00;59.44
71857;BME280;63344;46.980;28.882;2023-08-21T02:45:09;100805.75;;;23.03;59.35
71857;BME280;63344;46.980;28.882;2023-08-21T02:47:51;100816.88;;;23.10;58.86
71857;BME280;63344;46.980;28.882;2023-08-21T02:50:32;100821.44;;;23.10;58.72
71857;BME280;63344;46.980;28.882;2023-08-21T02:53:03;100816.03;;;23.10;58.28
71857;BME280;63344;46.980;28.882;2023-08-21T02:55:47;100819.19;;;23.15;58.25
71857;BME280;63344;46.980;28.882;2023-08-21T02:58:23;100819.75;;;23.18;58.45
71857;BME280;63344;46.980;28.882;2023-08-21T03:00:59;100829.19;;;23.24;58.33
71857;BME280;63344;46.980;28.882;2023-08-21T03:03:37;100820.22;;;23.23;58.59
71857;BME280;63344;46.980;28.882;2023-08-21T03:06:08;100816.78;;;23.21;58.26
71857;BME280;63344;46.980;28.882;2023-08-21T03:09:01;100827.22;;;23.26;58.01
71857;BME280;63344;46.980;28.882;2023-08-21T03:11:35;100832.50;;;23.27;57.77
71857;BME280;63344;46.980;28.882;2023-08-21T03:14:32;100819.81;;;23.28;57.88
71857;BME280;63344;46.980;28.882;2023-08-21T03:17:05;100826.66;;;23.32;57.57
71857;BME280;63344;46.980;28.882;2023-08-21T03:19:58;100825.69;;;23.33;57.68
71857;BME280;63344;46.980;28.882;2023-08-21T03:22:40;100826.41;;;23.35;57.67
71857;BME280;63344;46.980;28.882;2023-08-21T03:25:13;100829.13;;;23.35;57.66
71857;BME280;63344;46.980;28.882;2023-08-21T03:28:25;100825.13;;;23.39;57.55
71857;BME280;63344;46.980;28.882;2023-08-21T03:31:25;100806.72;;;23.33;57.17
71857;BME280;63344;46.980;28.882;2023-08-21T03:34:21;100823.59;;;23.46;57.48
71857;BME280;63344;46.980;28.882;2023-08-21T03:37:23;100823.31;;;23.59;57.23
71857;BME280;63344;46.980;28.882;2023-08-21T03:40:01;100819.63;;;23.70;57.08
71857;BME280;63344;46.980;28.882;2023-08-21T03:42:44;100828.84;;;23.89;56.98
71857;BME280;63344;46.980;28.882;2023-08-21T03:45:42;100820.69;;;24.08;56.60
71857;BME280;63344;46.980;28.882;2023-08-21T03:48:21;100820.00;;;24.25;56.04
71857;BME280;63344;46.980;28.882;2023-08-21T03:51:07;100822.84;;;24.43;55.57
71857;BME280;63344;46.980;28.882;2023-08-21T03:53:40;100823.56;;;24.65;55.44
71857;BME280;63344;46.980;28.882;2023-08-21T03:56:34;100823.19;;;24.88;55.04
71857;BME280;63344;46.980;28.882;2023-08-21T04:00:17;100824.94;;;25.26;54.96
71857;BME280;63344;46.980;28.882;2023-08-21T04:03:31;100830.09;;;25.57;53.73
71857;BME280;63344;46.980;28.882;2023-08-21T04:41:13;100846.53;;;28.43;47.96
71857;BME280;63344;46.980;28.882;2023-08-21T05:00:28;100851.94;;;29.65;44.49
71857;BME280;63344;46.980;28.882;2023-08-21T05:12:19;100846.41;;;30.27;42.81
71857;BME280;63344;46.980;28.882;2023-08-21T05:15:56;100846.50;;;30.42;42.43
71857;BME280;63344;46.980;28.882;2023-08-21T05:23:44;100855.44;;;30.13;41.76
71857;BME280;63344;46.980;28.882;2023-08-21T05:27:54;100865.06;;;29.69;42.14
71857;BME280;63344;46.980;28.882;2023-08-21T05:52:13;100878.00;;;27.80;46.54
71857;BME280;63344;46.980;28.882;2023-08-21T06:03:53;100884.75;;;27.68;46.83
71857;BME280;63344;46.980;28.882;2023-08-21T06:07:28;100879.13;;;27.69;47.34
71857;BME280;63344;46.980;28.882;2023-08-21T06:24:48;100879.91;;;27.88;47.82
71857;BME280;63344;46.980;28.882;2023-08-21T06:28:33;100888.16;;;27.96;47.46
71857;BME280;63344;46.980;28.882;2023-08-21T06:32:20;100882.19;;;28.00;47.15
71857;BME280;63344;46.980;28.882;2023-08-21T06:36:35;100883.72;;;28.03;46.98
71857;BME280;63344;46.980;28.882;2023-08-21T06:40:22;100881.00;;;28.11;47.33
71857;BME280;63344;46.980;28.882;2023-08-21T06:44:12;100885.09;;;28.15;47.54
71857;BME280;63344;46.980;28.882;2023-08-21T06:56:24;100888.56;;;28.34;47.07
71857;BME280;63344;46.980;28.882;2023-08-21T06:59:39;100883.41;;;28.39;47.05
71857;BME280;63344;46.980;28.882;2023-08-21T07:03:22;100877.78;;;28.49;46.25
71857;BME280;63344;46.980;28.882;2023-08-21T07:06:49;100878.50;;;28.67;46.07
71857;BME280;63344;46.980;28.882;2023-08-21T07:14:14;100881.72;;;28.87;45.41
71857;BME280;63344;46.980;28.882;2023-08-21T07:18:17;100877.59;;;29.08;44.42
71857;BME280;63344;46.980;28.882;2023-08-21T07:56:41;100847.91;;;30.38;40.11
71857;BME280;63344;46.980;28.882;2023-08-21T08:14:05;100852.72;;;31.56;40.22
71857;BME280;63344;46.980;28.882;2023-08-21T08:30:53;100837.94;;;35.11;33.89
71857;BME280;63344;46.980;28.882;2023-08-21T08:38:51;100826.84;;;36.22;30.90
71857;BME280;63344;46.980;28.882;2023-08-21T08:42:52;100831.91;;;37.56;29.70
71857;BME280;63344;46.980;28.882;2023-08-21T08:46:48;100811.28;;;38.12;27.11
71857;BME280;63344;46.980;28.882;2023-08-21T09:21:03;100799.50;;;38.17;27.43
71857;BME280;63344;46.980;28.882;2023-08-21T09:56:11;100790.78;;;41.07;24.02
71857;BME280;63344;46.980;28.882;2023-08-21T10:40:25;100740.22;;;38.94;25.17
71857;BME280;63344;46.980;28.882;2023-08-21T11:10:46;100721.41;;;35.80;29.22
71857;BME280;63344;46.980;28.882;2023-08-21T11:22:31;100707.50;;;35.55;30.37
71857;BME280;63344;46.980;28.882;2023-08-21T11:39:17;100713.13;;;35.35;30.29
71857;BME280;63344;46.980;28.882;2023-08-21T12:22:27;100679.53;;;34.14;32.34
71857;BME280;63344;46.980;28.882;2023-08-21T12:38:26;100679.09;;;33.97;32.91
71857;BME280;63344;46.980;28.882;2023-08-21T12:42:54;100682.91;;;33.89;32.53
71857;BME280;63344;46.980;28.882;2023-08-21T13:15:05;100672.44;;;33.58;34.44
71857;BME280;63344;46.980;28.882;2023-08-21T13:25:26;100673.84;;;33.14;35.14
71857;BME280;63344;46.980;28.882;2023-08-21T13:38:33;100655.25;;;32.81;36.22
71857;BME280;63344;46.980;28.882;2023-08-21T13:55:09;100645.94;;;33.57;35.23
71857;BME280;63344;46.980;28.882;2023-08-21T14:21:33;100642.19;;;33.98;33.93
71857;BME280;63344;46.980;28.882;2023-08-21T14:25:59;100637.28;;;34.00;34.18
71857;BME280;63344;46.980;28.882;2023-08-21T14:52:14;100624.69;;;33.11;35.05
71857;BME280;63344;46.980;28.882;2023-08-21T14:55:55;100619.13;;;32.98;34.95
71857;BME280;63344;46.980;28.882;2023-08-21T15:08:41;100629.31;;;33.04;35.34
71857;BME280;63344;46.980;28.882;2023-08-21T15:33:45;100614.03;;;32.46;37.74
71857;BME280;63344;46.980;28.882;2023-08-21T15:44:56;100627.78;;;32.46;37.91
71857;BME280;63344;46.980;28.882;2023-08-21T18:16:47;100718.09;;;29.70;43.10
71857;BME280;63344;46.980;28.882;2023-08-21T18:23:25;100726.72;;;29.58;42.98
71857;BME280;63344;46.980;28.882;2023-08-21T18:26:39;100724.03;;;29.50;43.40
71857;BME280;63344;46.980;28.882;2023-08-21T18:36:18;100733.03;;;29.36;44.17
71857;BME280;63344;46.980;28.882;2023-08-21T18:39:49;100733.59;;;29.23;44.33
71857;BME280;63344;46.980;28.882;2023-08-21T18:43:23;100736.88;;;29.10;44.79
71857;BME280;63344;46.980;28.882;2023-08-21T18:58:38;100732.44;;;28.53;46.54
71857;BME280;63344;46.980;28.882;2023-08-21T19:01:24;100743.72;;;28.42;47.31
71857;BME280;63344;46.980;28.882;2023-08-21T19:12:56;100741.03;;;27.93;49.90
71857;BME280;63344;46.980;28.882;2023-08-21T19:16:10;100758.06;;;27.78;50.19
71857;BME280;63344;46.980;28.882;2023-08-21T19:18:48;100744.38;;;27.62;50.44
71857;BME280;63344;46.980;28.882;2023-08-21T19:21:35;100735.81;;;27.49;50.73
71857;BME280;63344;46.980;28.882;2023-08-21T19:33:06;100745.25;;;27.20;52.89
71857;BME280;63344;46.980;28.882;2023-08-21T19:43:52;100753.94;;;26.81;54.28
71857;BME280;63344;46.980;28.882;2023-08-21T19:46:48;100754.91;;;26.72;54.44
71857;BME280;63344;46.980;28.882;2023-08-21T20:01:38;100778.50;;;26.37;55.69
71857;BME280;63344;46.980;28.882;2023-08-21T20:08:03;100772.34;;;26.35;55.66
71857;BME280;63344;46.980;28.882;2023-08-21T20:10:48;100773.25;;;26.43;55.46
71857;BME280;63344;46.980;28.882;2023-08-21T20:13:33;100772.94;;;26.47;55.53
71857;BME280;63344;46.980;28.882;2023-08-21T20:16:43;100783.06;;;26.54;54.67
71857;BME280;63344;46.980;28.882;2023-08-21T20:19:30;100782.44;;;26.60;54.61
71857;BME280;63344;46.980;28.882;2023-08-21T20:22:20;100787.59;;;26.72;54.09
71857;BME280;63344;46.980;28.882;2023-08-21T20:25:06;100785.81;;;26.80;54.19
71857;BME280;63344;46.980;28.882;2023-08-21T20:27:37;100778.84;;;26.86;53.50
71857;BME280;63344;46.980;28.882;2023-08-21T20:30:50;100788.59;;;26.97;53.24
71857;BME280;63344;46.980;28.882;2023-08-21T20:33:33;100787.41;;;26.99;53.30
71857;BME280;63344;46.980;28.882;2023-08-21T20:36:25;100778.72;;;26.96;53.23
71857;BME280;63344;46.980;28.882;2023-08-21T20:39:11;100786.41;;;27.00;53.14
71857;BME280;63344;46.980;28.882;2023-08-21T20:41:58;100791.53;;;27.03;53.20
71857;BME280;63344;46.980;28.882;2023-08-21T20:45:05;100787.97;;;27.03;52.91
71857;BME280;63344;46.980;28.882;2023-08-21T20:48:05;100792.56;;;27.02;52.93
71857;BME280;63344;46.980;28.882;2023-08-21T20:51:10;100787.09;;;27.02;53.13
71857;BME280;63344;46.980;28.882;2023-08-21T20:53:51;100781.97;;;26.99;52.82
71857;BME280;63344;46.980;28.882;2023-08-21T20:56:35;100785.03;;;26.96;52.70
71857;BME280;63344;46.980;28.882;2023-08-21T20:59:11;100785.03;;;26.96;52.76
71857;BME280;63344;46.980;28.882;2023-08-21T21:02:06;100778.91;;;26.94;52.67
71857;BME280;63344;46.980;28.882;2023-08-21T21:04:56;100778.19;;;26.92;52.65
71857;BME280;63344;46.980;28.882;2023-08-21T21:07:37;100784.66;;;26.91;52.83
71857;BME280;63344;46.980;28.882;2023-08-21T21:10:16;100778.66;;;26.88;52.71
71857;BME280;63344;46.980;28.882;2023-08-21T21:13:24;100774.41;;;26.85;52.59
71857;BME280;63344;46.980;28.882;2023-08-21T21:15:59;100786.50;;;26.82;52.88
71857;BME280;63344;46.980;28.882;2023-08-21T21:18:52;100782.84;;;26.74;52.85
71857;BME280;63344;46.980;28.882;2023-08-21T21:21:29;100785.25;;;26.77;52.83
71857;BME280;63344;46.980;28.882;2023-08-21T21:24:07;100787.59;;;26.72;52.96
71857;BME280;63344;46.980;28.882;2023-08-21T21:27:17;100787.78;;;26.70;52.87
71857;BME280;63344;46.980;28.882;2023-08-21T21:30:18;100799.69;;;26.69;52.87
71857;BME280;63344;46.980;28.882;2023-08-21T21:33:19;100793.88;;;26.64;52.98
71857;BME280;63344;46.980;28.882;2023-08-21T21:35:57;100784.47;;;26.58;53.18
71857;BME280;63344;46.980;28.882;2023-08-21T21:38:30;100784.75;;;26.55;53.00
71857;BME280;63344;46.980;28.882;2023-08-21T21:41:06;100795.38;;;26.58;53.09
71857;BME280;63344;46.980;28.882;2023-08-21T21:43:48;100780.31;;;26.54;53.21
71857;BME280;63344;46.980;28.882;2023-08-21T21:46:27;100783.91;;;26.55;53.04
71857;BME280;63344;46.980;28.882;2023-08-21T21:49:12;100796.50;;;26.56;53.14
71857;BME280;63344;46.980;28.882;2023-08-21T21:51:50;100785.38;;;26.49;53.05
71857;BME280;63344;46.980;28.882;2023-08-21T21:54:18;100794.94;;;26.53;53.09
71857;BME280;63344;46.980;28.882;2023-08-21T21:57:10;100792.88;;;26.47;53.06
71857;BME280;63344;46.980;28.882;2023-08-21T22:03:26;100792.47;;;26.42;53.25
71857;BME280;63344;46.980;28.882;2023-08-21T22:06:02;100801.53;;;26.42;53.30
71857;BME280;63344;46.980;28.882;2023-08-21T22:09:02;100802.84;;;26.38;53.29
71857;BME280;63344;46.980;28.882;2023-08-21T22:11:33;100803.31;;;26.34;53.16
71857;BME280;63344;46.980;28.882;2023-08-21T22:14:29;100802.59;;;26.32;53.41
71857;BME280;63344;46.980;28.882;2023-08-21T22:17:30;100802.94;;;26.29;53.55
71857;BME280;63344;46.980;28.882;2023-08-21T22:20:48;100803.41;;;26.24;53.40
71857;BME280;63344;46.980;28.882;2023-08-21T22:23:24;100794.47;;;26.14;53.55
71857;BME280;63344;46.980;28.882;2023-08-21T22:29:29;100815.09;;;26.16;53.70
71857;BME280;63344;46.980;28.882;2023-08-21T22:32:53;100811.69;;;26.14;54.10
71857;BME280;63344;46.980;28.882;2023-08-21T22:35:39;100807.38;;;26.12;53.78
71857;BME280;63344;46.980;28.882;2023-08-21T22:38:13;100814.00;;;26.09;54.05
71857;BME280;63344;46.980;28.882;2023-08-21T22:40:49;100805.44;;;26.04;54.23
71857;BME280;63344;46.980;28.882;2023-08-21T22:43:43;100812.91;;;26.02;54.39
71857;BME280;63344;46.980;28.882;2023-08-21T22:46:36;100814.78;;;26.01;54.38
71857;BME280;63344;46.980;28.882;2023-08-21T22:49:49;100813.53;;;25.96;54.88
71857;BME280;63344;46.980;28.882;2023-08-21T22:52:56;100813.16;;;25.91;54.85
71857;BME280;63344;46.980;28.882;2023-08-21T22:55:36;100813.84;;;25.93;54.84
71857;BME280;63344;46.980;28.882;2023-08-21T22:58:54;100816.84;;;25.90;55.15
71857;BME280;63344;46.980;28.882;2023-08-21T23:01:29;100816.13;;;25.88;55.10
71857;BME280;63344;46.980;28.882;2023-08-21T23:04:12;100819.19;;;25.84;55.42
71857;BME280;63344;46.980;28.882;2023-08-21T23:06:51;100821.03;;;25.84;55.51
71857;BME280;63344;46.980;28.882;2023-08-21T23:09:25;100819.47;;;25.81;55.67
71857;BME280;63344;46.980;28.882;2023-08-21T23:12:00;100822.53;;;25.78;55.46
71857;BME280;63344;46.980;28.882;2023-08-21T23:14:40;100814.97;;;25.72;55.82
71857;BME280;63344;46.980;28.882;2023-08-21T23:17:21;100815.69;;;25.74;55.93
71857;BME280;63344;46.980;28.882;2023-08-21T23:20:24;100821.41;;;25.71;56.19
71857;BME280;63344;46.980;28.882;2023-08-21T23:23:01;100816.13;;;25.70;56.24
71857;BME280;63344;46.980;28.882;2023-08-21T23:26:01;100807.25;;;25.68;56.51
71857;BME280;63344;46.980;28.882;2023-08-21T23:28:36;100814.56;;;25.67;56.29
71857;BME280;63344;46.980;28.882;2023-08-21T23:31:18;100809.25;;;25.66;56.46
71857;BME280;63344;46.980;28.882;2023-08-21T23:34:26;100809.25;;;25.66;56.44
71857;BME280;63344;46.980;28.882;2023-08-21T23:37:07;100812.31;;;25.62;56.76
71857;BME280;63344;46.980;28.882;2023-08-21T23:39:51;100819.31;;;25.65;56.71
71857;BME280;63344;46.980;28.882;2023-08-21T23:42:35;100817.75;;;25.62;56.66
71857;BME280;63344;46.980;28.882;2023-08-21T23:45:19;100823.91;;;25.64;56.66
71857;BME280;63344;46.980;28.882;2023-08-21T23:48:05;100818.44;;;25.64;56.93
71857;BME280;63344;46.980;28.882;2023-08-21T23:50:48;100824.03;;;25.63;56.83
71857;BME280;63344;46.980;28.882;2023-08-21T23:53:19;100813.78;;;25.57;56.91
71857;BME280;63344;46.980;28.882;2023-08-21T23:55:59;100797.91;;;25.52;57.27
71857;BME280;63344;46.980;28.882;2023-08-21T23:58:38;100813.22;;;25.53;57.36
